sensor_id;sensor_type;location;lat;lon;timestamp;pressure;altitude;pressure_sealevel;temperature;humidity
48800;BME280;34611;47.964;7.982;2023-05-25T00:05:42;96995.50;;;13.38;66.84
48800;BME280;34611;47.964;7.982;2023-05-25T00:12:43;96992.06;;;13.38;66.75
48800;BME280;34611;47.964;7.982;2023-05-25T00:19:43;96981.63;;;13.38;66.72
48800;BME280;34611;47.964;7.982;2023-05-25T00:26:44;96990.28;;;13.38;66.58
48800;BME280;34611;47.964;7.982;2023-05-25T00:33:44;96976.41;;;13.38;66.63
48800;BME280;34611;47.964;7.982;2023-05-25T00:40:44;96984.25;;;13.38;66.72
48800;BME280;34611;47.964;7.982;2023-05-25T00:47:45;96964.31;;;13.36;66.64
48800;BME280;34611;47.964;7.982;2023-05-25T00:54:50;96965.97;;;13.38;66.78
48800;BME280;34611;47.964;7.982;2023-05-25T01:01:53;96958.13;;;13.38;66.76
48800;BME280;34611;47.964;7.982;2023-05-25T01:08:56;96959.91;;;13.37;66.72
48800;BME280;34611;47.964;7.982;2023-05-25T01:15:59;96954.69;;;13.37;66.80
48800;BME280;34611;47.964;7.982;2023-05-25T01:23:18;96959.91;;;13.37;66.68
48800;BME280;34611;47.964;7.982;2023-05-25T01:30:40;96960.75;;;13.38;66.50
48800;BME280;34611;47.964;7.982;2023-05-25T01:37:45;96952.91;;;13.38;66.60
48800;BME280;34611;47.964;7.982;2023-05-25T01:44:45;96954.69;;;13.37;66.64
48800;BME280;34611;47.964;7.982;2023-05-25T01:51:56;96957.28;;;13.37;66.58
48800;BME280;34611;47.964;7.982;2023-05-25T01:59:00;96949.47;;;13.37;66.58
48800;BME280;34611;47.964;7.982;2023-05-25T02:06:01;96943.41;;;13.36;66.60
48800;BME280;34611;47.964;7.982;2023-05-25T02:13:02;96939.84;;;13.38;66.79
48800;BME280;34611;47.964;7.982;2023-05-25T02:20:03;96927.63;;;13.38;66.59
48800;BME280;34611;47.964;7.982;2023-05-25T02:27:05;96925.13;;;13.36;66.61
48800;BME280;34611;47.964;7.982;2023-05-25T02:34:06;96924.19;;;13.38;66.67
48800;BME280;34611;47.964;7.982;2023-05-25T02:41:06;96918.97;;;13.38;66.65
48800;BME280;34611;47.964;7.982;2023-05-25T02:48:06;96913.75;;;13.38;66.58
48800;BME280;34611;47.964;7.982;2023-05-25T02:55:08;96919.91;;;13.36;66.72
48800;BME280;34611;47.964;7.982;2023-05-25T03:02:15;96927.75;;;13.36;66.64
48800;BME280;34611;47.964;7.982;2023-05-25T03:09:17;96938.19;;;13.36;66.58
48800;BME280;34611;47.964;7.982;2023-05-25T03:16:20;96944.22;;;13.37;66.87
48800;BME280;34611;47.964;7.982;2023-05-25T03:23:22;96953.88;;;13.36;66.53
48800;BME280;34611;47.964;7.982;2023-05-25T03:30:25;96952.06;;;13.37;66.78
48800;BME280;34611;47.964;7.982;2023-05-25T03:37:26;96946.03;;;13.36;66.80
48800;BME280;34611;47.964;7.982;2023-05-25T03:44:26;96939.00;;;13.37;66.61
48800;BME280;34611;47.964;7.982;2023-05-25T03:51:27;96946.84;;;13.37;66.56
48800;BME280;34611;47.964;7.982;2023-05-25T03:58:28;96950.31;;;13.38;66.62
48800;BME280;34611;47.964;7.982;2023-05-25T04:05:28;96950.31;;;13.38;66.59
48800;BME280;34611;47.964;7.982;2023-05-25T04:12:30;96957.28;;;13.37;66.64
48800;BME280;34611;47.964;7.982;2023-05-25T04:19:31;96944.22;;;13.37;66.61
48800;BME280;34611;47.964;7.982;2023-05-25T04:26:31;96942.47;;;13.38;66.88
48800;BME280;34611;47.964;7.982;2023-05-25T04:33:34;96941.63;;;13.37;66.69
48800;BME280;34611;47.964;7.982;2023-05-25T04:40:58;96962.38;;;13.39;66.74
48800;BME280;34611;47.964;7.982;2023-05-25T04:47:58;96960.81;;;13.46;66.59
48800;BME280;34611;47.964;7.982;2023-05-25T04:55:01;96952.91;;;13.38;66.91
48800;BME280;34611;47.964;7.982;2023-05-25T05:02:03;96963.34;;;13.38;66.76
48800;BME280;34611;47.964;7.982;2023-05-25T05:09:04;96958.13;;;13.38;66.74
48800;BME280;34611;47.964;7.982;2023-05-25T05:16:04;96974.63;;;13.38;66.72
48800;BME280;34611;47.964;7.982;2023-05-25T05:23:06;96983.41;;;13.37;66.73
48800;BME280;34611;47.964;7.982;2023-05-25T05:30:07;96995.50;;;13.38;66.71
48800;BME280;34611;47.964;7.982;2023-05-25T05:37:08;96988.63;;;13.37;66.70
48800;BME280;34611;47.964;7.982;2023-05-25T05:44:10;96985.19;;;13.36;66.65
48800;BME280;34611;47.964;7.982;2023-05-25T05:51:11;96988.63;;;13.37;66.67
48800;BME280;34611;47.964;7.982;2023-05-25T05:58:13;96984.25;;;13.38;66.78
48800;BME280;34611;47.964;7.982;2023-05-25T06:05:14;96972.13;;;13.36;66.84
48800;BME280;34611;47.964;7.982;2023-05-25T06:12:15;96975.56;;;13.37;66.64
48800;BME280;34611;47.964;7.982;2023-05-25T06:19:16;96973.81;;;13.38;66.65
48800;BME280;34611;47.964;7.982;2023-05-25T06:26:16;96977.38;;;13.36;66.84
48800;BME280;34611;47.964;7.982;2023-05-25T06:33:16;96966.91;;;13.36;66.79
48800;BME280;34611;47.964;7.982;2023-05-25T06:40:17;96972.94;;;13.37;66.81
48800;BME280;34611;47.964;7.982;2023-05-25T06:47:18;96980.78;;;13.37;66.58
48800;BME280;34611;47.964;7.982;2023-05-25T06:54:20;97002.53;;;13.38;66.80
48800;BME280;34611;47.964;7.982;2023-05-25T07:01:20;96997.44;;;13.36;66.84
48800;BME280;34611;47.964;7.982;2023-05-25T07:08:21;97003.47;;;13.36;66.68
48800;BME280;34611;47.964;7.982;2023-05-25T07:15:21;97010.34;;;13.38;66.74
48800;BME280;34611;47.964;7.982;2023-05-25T07:22:21;97019.94;;;13.37;66.76
48800;BME280;34611;47.964;7.982;2023-05-25T07:29:22;97031.25;;;13.38;66.77
48800;BME280;34611;47.964;7.982;2023-05-25T07:36:22;97030.41;;;13.37;66.85
48800;BME280;34611;47.964;7.982;2023-05-25T07:43:23;97042.63;;;13.36;66.86
48800;BME280;34611;47.964;7.982;2023-05-25T07:50:24;97041.69;;;13.38;66.70
48800;BME280;34611;47.964;7.982;2023-05-25T07:57:24;97055.69;;;13.36;66.68
48800;BME280;34611;47.964;7.982;2023-05-25T08:04:24;97053.09;;;13.36;66.71
48800;BME280;34611;47.964;7.982;2023-05-25T08:11:25;97053.09;;;13.36;66.70
48800;BME280;34611;47.964;7.982;2023-05-25T08:18:25;97048.69;;;13.37;66.61
48800;BME280;34611;47.964;7.982;2023-05-25T08:25:25;97059.97;;;13.38;66.62
48800;BME280;34611;47.964;7.982;2023-05-25T08:32:26;97042.63;;;13.36;66.71
48800;BME280;34611;47.964;7.982;2023-05-25T08:39:27;97047.72;;;13.38;66.79
48800;BME280;34611;47.964;7.982;2023-05-25T08:46:28;97057.34;;;13.38;66.78
48800;BME280;34611;47.964;7.982;2023-05-25T08:53:31;97076.59;;;13.36;66.91
48800;BME280;34611;47.964;7.982;2023-05-25T09:00:33;97072.19;;;13.37;66.85
48800;BME280;34611;47.964;7.982;2023-05-25T09:07:35;97076.59;;;13.36;66.84
48800;BME280;34611;47.964;7.982;2023-05-25T09:14:35;97087.84;;;13.37;66.88
48800;BME280;34611;47.964;7.982;2023-05-25T09:21:44;97093.06;;;13.37;66.75
48800;BME280;34611;47.964;7.982;2023-05-25T09:28:45;97107.78;;;13.38;66.58
48800;BME280;34611;47.964;7.982;2023-05-25T09:35:46;97120.03;;;13.38;66.80
48800;BME280;34611;47.964;7.982;2023-05-25T09:42:46;97119.19;;;13.37;66.83
48800;BME280;34611;47.964;7.982;2023-05-25T09:49:46;97127.84;;;13.38;66.63
48800;BME280;34611;47.964;7.982;2023-05-25T09:56:49;97134.84;;;13.37;66.81
48800;BME280;34611;47.964;7.982;2023-05-25T10:03:50;97139.25;;;13.36;66.82
48800;BME280;34611;47.964;7.982;2023-05-25T10:10:52;97140.06;;;13.37;66.88
48800;BME280;34611;47.964;7.982;2023-05-25T10:17:52;97146.13;;;13.38;66.80
48800;BME280;34611;47.964;7.982;2023-05-25T10:31:55;97146.13;;;13.38;66.86
48800;BME280;34611;47.964;7.982;2023-05-25T10:38:57;97151.34;;;13.38;66.68
48800;BME280;34611;47.964;7.982;2023-05-25T10:45:57;97145.28;;;13.37;66.85
48800;BME280;34611;47.964;7.982;2023-05-25T10:52:59;97156.59;;;13.38;66.69
48800;BME280;34611;47.964;7.982;2023-05-25T11:00:01;97157.41;;;13.38;66.82
48800;BME280;34611;47.964;7.982;2023-05-25T11:07:05;97161.81;;;13.38;66.90
48800;BME280;34611;47.964;7.982;2023-05-25T11:28:30;97160.94;;;13.37;66.71
48800;BME280;34611;47.964;7.982;2023-05-25T11:35:31;97171.41;;;13.37;66.75
48800;BME280;34611;47.964;7.982;2023-05-25T11:42:32;97168.78;;;13.37;66.75
48800;BME280;34611;47.964;7.982;2023-05-25T11:49:33;97164.41;;;13.38;66.68
48800;BME280;34611;47.964;7.982;2023-05-25T11:56:33;97160.00;;;13.38;66.70
48800;BME280;34611;47.964;7.982;2023-05-25T12:03:34;97167.97;;;13.36;66.72
48800;BME280;34611;47.964;7.982;2023-05-25T12:10:34;97160.13;;;13.36;66.96
48800;BME280;34611;47.964;7.982;2023-05-25T12:17:48;97153.97;;;13.38;66.75
48800;BME280;34611;47.964;7.982;2023-05-25T12:24:48;97158.34;;;13.37;66.76
48800;BME280;34611;47.964;7.982;2023-05-25T12:31:48;97150.50;;;13.37;66.72
48800;BME280;34611;47.964;7.982;2023-05-25T12:38:58;97155.59;;;13.39;66.71
48800;BME280;34611;47.964;7.982;2023-05-25T12:45:58;97147.91;;;13.37;66.72
48800;BME280;34611;47.964;7.982;2023-05-25T12:53:00;97140.91;;;13.38;66.74
48800;BME280;34611;47.964;7.982;2023-05-25T13:00:00;97152.19;;;13.38;66.72
48800;BME280;34611;47.964;7.982;2023-05-25T13:07:01;97147.78;;;13.39;66.85
48800;BME280;34611;47.964;7.982;2023-05-25T13:14:01;97141.72;;;13.38;66.88
48800;BME280;34611;47.964;7.982;2023-05-25T13:21:01;97140.91;;;13.38;66.72
48800;BME280;34611;47.964;7.982;2023-05-25T13:28:01;97132.22;;;13.37;66.77
48800;BME280;34611;47.964;7.982;2023-05-25T13:35:02;97138.31;;;13.38;66.66
48800;BME280;34611;47.964;7.982;2023-05-25T13:42:03;97130.47;;;13.38;66.94
48800;BME280;34611;47.964;7.982;2023-05-25T13:49:04;97129.63;;;13.37;66.69
48800;BME280;34611;47.964;7.982;2023-05-25T13:56:04;97127.84;;;13.38;66.68
48800;BME280;34611;47.964;7.982;2023-05-25T14:03:05;97136.63;;;13.36;66.83
48800;BME280;34611;47.964;7.982;2023-05-25T14:10:05;97129.50;;;13.39;66.58
48800;BME280;34611;47.964;7.982;2023-05-25T14:17:06;97137.31;;;13.39;66.78
48800;BME280;34611;47.964;7.982;2023-05-25T14:24:06;97135.69;;;13.38;66.77
48800;BME280;34611;47.964;7.982;2023-05-25T14:31:06;97144.34;;;13.38;66.87
48800;BME280;34611;47.964;7.982;2023-05-25T14:38:07;97142.53;;;13.39;66.74
48800;BME280;34611;47.964;7.982;2023-05-25T14:45:07;97140.91;;;13.38;66.86
48800;BME280;34611;47.964;7.982;2023-05-25T14:52:08;97135.69;;;13.38;66.86
48800;BME280;34611;47.964;7.982;2023-05-25T14:59:08;97140.91;;;13.38;66.70
48800;BME280;34611;47.964;7.982;2023-05-25T15:06:08;97147.78;;;13.39;66.97
48800;BME280;34611;47.964;7.982;2023-05-25T15:13:08;97149.44;;;13.40;66.94
48800;BME280;34611;47.964;7.982;2023-05-25T15:20:09;97151.34;;;13.38;66.72
48800;BME280;34611;47.964;7.982;2023-05-25T15:27:09;97139.94;;;13.39;66.74
48800;BME280;34611;47.964;7.982;2023-05-25T15:34:10;97151.34;;;13.38;66.76
48800;BME280;34611;47.964;7.982;2023-05-25T15:41:11;97158.22;;;13.39;66.68
48800;BME280;34611;47.964;7.982;2023-05-25T15:48:13;97163.44;;;13.39;66.79
48800;BME280;34611;47.964;7.982;2023-05-25T15:55:13;97178.16;;;13.40;66.88
48800;BME280;34611;47.964;7.982;2023-05-25T16:02:13;97168.66;;;13.39;66.96
48800;BME280;34611;47.964;7.982;2023-05-25T16:09:14;97171.28;;;13.39;66.89
48800;BME280;34611;47.964;7.982;2023-05-25T16:16:14;97174.97;;;13.46;66.59
48800;BME280;34611;47.964;7.982;2023-05-25T16:23:14;97174.81;;;13.67;65.57
48800;BME280;34611;47.964;7.982;2023-05-25T16:30:15;97181.00;;;13.66;64.17
48800;BME280;34611;47.964;7.982;2023-05-25T16:37:15;97177.56;;;13.65;62.91
48800;BME280;34611;47.964;7.982;2023-05-25T16:44:15;97175.78;;;13.66;61.89
48800;BME280;34611;47.964;7.982;2023-05-25T16:51:16;97183.34;;;13.69;61.71
48800;BME280;34611;47.964;7.982;2023-05-25T16:58:16;97181.25;;;13.72;61.83
48800;BME280;34611;47.964;7.982;2023-05-25T17:05:16;97175.78;;;13.66;60.62
48800;BME280;34611;47.964;7.982;2023-05-25T17:12:17;97176.88;;;13.53;61.87
48800;BME280;34611;47.964;7.982;2023-05-25T17:19:17;97182.41;;;13.50;62.58
48800;BME280;34611;47.964;7.982;2023-05-25T17:26:17;97198.91;;;13.51;63.02
48800;BME280;34611;47.964;7.982;2023-05-25T17:33:17;97200.00;;;13.48;63.24
48800;BME280;34611;47.964;7.982;2023-05-25T17:40:18;97204.25;;;13.49;63.45
48800;BME280;34611;47.964;7.982;2023-05-25T17:47:18;97212.22;;;13.48;63.75
48800;BME280;34611;47.964;7.982;2023-05-25T17:54:18;97224.31;;;13.49;63.88
48800;BME280;34611;47.964;7.982;2023-05-25T18:01:24;97219.09;;;13.49;63.82
48800;BME280;34611;47.964;7.982;2023-05-25T18:08:24;97225.28;;;13.48;63.93
48800;BME280;34611;47.964;7.982;2023-05-25T18:15:25;97226.25;;;13.47;64.12
48800;BME280;34611;47.964;7.982;2023-05-25T18:22:25;97227.06;;;13.47;64.29
48800;BME280;34611;47.964;7.982;2023-05-25T18:29:25;97232.28;;;13.47;64.23
48800;BME280;34611;47.964;7.982;2023-05-25T18:36:26;97234.09;;;13.47;64.35
48800;BME280;34611;47.964;7.982;2023-05-25T18:43:26;97236.84;;;13.55;64.25
48800;BME280;34611;47.964;7.982;2023-05-25T18:50:26;97245.91;;;13.61;64.39
48800;BME280;34611;47.964;7.982;2023-05-25T18:57:26;97247.28;;;13.55;64.89
48800;BME280;34611;47.964;7.982;2023-05-25T19:04:27;97251.00;;;13.52;65.02
48800;BME280;34611;47.964;7.982;2023-05-25T19:11:28;97252.75;;;13.52;65.18
48800;BME280;34611;47.964;7.982;2023-05-25T19:18:28;97251.94;;;13.51;65.07
48800;BME280;34611;47.964;7.982;2023-05-25T19:25:28;97251.94;;;13.51;65.16
48800;BME280;34611;47.964;7.982;2023-05-25T19:32:28;97260.75;;;13.50;65.03
48800;BME280;34611;47.964;7.982;2023-05-25T19:39:29;97272.97;;;13.50;65.08
48800;BME280;34611;47.964;7.982;2023-05-25T19:46:30;97284.25;;;13.50;65.25
48800;BME280;34611;47.964;7.982;2023-05-25T19:53:30;97288.50;;;13.51;65.14
48800;BME280;34611;47.964;7.982;2023-05-25T20:00:31;97297.44;;;13.49;65.37
48800;BME280;34611;47.964;7.982;2023-05-25T20:07:31;97305.16;;;13.50;65.28
48800;BME280;34611;47.964;7.982;2023-05-25T20:14:31;97308.72;;;13.49;65.20
48800;BME280;34611;47.964;7.982;2023-05-25T20:21:34;97314.75;;;13.50;65.20
48800;BME280;34611;47.964;7.982;2023-05-25T20:28:35;97319.16;;;13.49;65.41
48800;BME280;34611;47.964;7.982;2023-05-25T20:35:35;97322.59;;;13.50;65.18
48800;BME280;34611;47.964;7.982;2023-05-25T20:42:36;97325.38;;;13.48;65.47
48800;BME280;34611;47.964;7.982;2023-05-25T20:49:36;97333.03;;;13.50;65.40
48800;BME280;34611;47.964;7.982;2023-05-25T20:56:36;97325.19;;;13.50;65.38
48800;BME280;34611;47.964;7.982;2023-05-25T21:03:37;97330.44;;;13.50;65.44
48800;BME280;34611;47.964;7.982;2023-05-25T21:10:38;97325.19;;;13.50;65.53
48800;BME280;34611;47.964;7.982;2023-05-25T21:17:38;97331.41;;;13.49;65.39
48800;BME280;34611;47.964;7.982;2023-05-25T21:24:38;97333.19;;;13.48;65.46
48800;BME280;34611;47.964;7.982;2023-05-25T21:31:38;97341.84;;;13.49;65.36
48800;BME280;34611;47.964;7.982;2023-05-25T21:38:39;97327.13;;;13.48;65.53
48800;BME280;34611;47.964;7.982;2023-05-25T21:45:39;97344.47;;;13.49;65.41
48800;BME280;34611;47.964;7.982;2023-05-25T21:52:39;97342.78;;;13.48;65.51
48800;BME280;34611;47.964;7.982;2023-05-25T21:59:40;97342.78;;;13.48;65.67
48800;BME280;34611;47.964;7.982;2023-05-25T22:06:40;97335.81;;;13.48;65.36
48800;BME280;34611;47.964;7.982;2023-05-25T22:13:41;97341.84;;;13.49;65.59
48800;BME280;34611;47.964;7.982;2023-05-25T22:20:41;97342.78;;;13.48;65.57
48800;BME280;34611;47.964;7.982;2023-05-25T22:27:41;97340.19;;;13.48;65.53
48800;BME280;34611;47.964;7.982;2023-05-25T22:34:42;97346.25;;;13.48;65.65
48800;BME280;34611;47.964;7.982;2023-05-25T22:41:42;97350.63;;;13.48;65.71
48800;BME280;34611;47.964;7.982;2023-05-25T22:48:42;97341.84;;;13.49;65.47
48800;BME280;34611;47.964;7.982;2023-05-25T22:55:42;97330.59;;;13.48;65.67
48800;BME280;34611;47.964;7.982;2023-05-25T23:02:43;97334.97;;;13.48;65.59
48800;BME280;34611;47.964;7.982;2023-05-25T23:09:43;97336.63;;;13.49;65.69
48800;BME280;34611;47.964;7.982;2023-05-25T23:16:43;97320.13;;;13.48;65.59
48800;BME280;34611;47.964;7.982;2023-05-25T23:23:47;97324.50;;;13.48;65.78
48800;BME280;34611;47.964;7.982;2023-05-25T23:30:47;97322.88;;;13.47;65.80
48800;BME280;34611;47.964;7.982;2023-05-25T23:37:47;97321.91;;;13.48;65.84
48800;BME280;34611;47.964;7.982;2023-05-25T23:44:49;97324.50;;;13.48;65.52
48800;BME280;34611;47.964;7.982;2023-05-25T23:51:49;97336.63;;;13.49;65.61
48800;BME280;34611;47.964;7.982;2023-05-25T23:58:49;97333.19;;;13.48;65.69
